createdAt,value
2018-12-31T00:01:10.183Z,69.50
2018-12-31T00:03:39.689Z,53.83
2018-12-31T00:06:09.560Z,63.30
2018-12-31T00:08:39.289Z,56.40
2018-12-31T00:11:09.565Z,56.03
2018-12-31T00:13:39.539Z,55.87
2018-12-31T00:16:09.207Z,49.07
2018-12-31T00:18:39.412Z,50.63
2018-12-31T00:21:09.437Z,46.30
2018-12-31T00:23:39.338Z,40.67
2018-12-31T00:26:08.826Z,43.87
2018-12-31T00:28:38.764Z,50.60
2018-12-31T00:31:08.420Z,42.33
2018-12-31T00:33:38.404Z,46.37
2018-12-31T00:36:07.900Z,45.60
2018-12-31T00:38:37.836Z,54.63
2018-12-31T00:41:07.820Z,52.07
2018-12-31T00:43:37.291Z,50.77
2018-12-31T00:46:06.775Z,54.13
2018-12-31T00:48:36.292Z,53.17
2018-12-31T00:51:05.810Z,60.40
2018-12-31T00:53:35.306Z,56.93
2018-12-31T00:56:04.830Z,67.47
2018-12-31T00:58:34.362Z,57.03
2018-12-31T01:01:03.926Z,51.23
2018-12-31T01:03:33.465Z,51.17
2018-12-31T01:06:02.953Z,61.37
2018-12-31T01:08:32.526Z,76.20
2018-12-31T01:11:02.028Z,76.50
2018-12-31T01:13:31.590Z,52.30
2018-12-31T01:16:01.070Z,83.20
2018-12-31T01:18:30.587Z,63.23
2018-12-31T01:21:00.060Z,72.83
2018-12-31T01:23:29.575Z,69.00
2018-12-31T01:25:59.137Z,78.17
2018-12-31T01:28:28.956Z,92.97
2018-12-31T01:30:58.654Z,59.83
2018-12-31T01:33:28.138Z,78.43
2018-12-31T01:35:57.686Z,99.03
2018-12-31T01:38:27.632Z,80.23
2018-12-31T01:40:57.148Z,113.20
2018-12-31T01:43:26.845Z,106.57
2018-12-31T01:45:56.742Z,88.97
2018-12-31T01:48:26.219Z,79.80
2018-12-31T01:50:55.805Z,73.90
2018-12-31T01:53:25.269Z,75.87
2018-12-31T01:55:54.784Z,80.77
2018-12-31T01:58:24.578Z,83.63
2018-12-31T02:00:54.068Z,85.93
2018-12-31T02:03:23.712Z,82.17
2018-12-31T02:05:53.212Z,85.23
2018-12-31T02:08:23.134Z,87.80
2018-12-31T02:10:52.728Z,85.27
2018-12-31T02:13:22.264Z,69.77
2018-12-31T02:15:52.091Z,72.50
2018-12-31T02:18:22.022Z,81.87
2018-12-31T02:20:52.415Z,72.73
2018-12-31T02:23:21.978Z,79.07
2018-12-31T02:25:51.453Z,80.00
2018-12-31T02:28:21.167Z,75.47
2018-12-31T02:30:50.693Z,75.30
2018-12-31T02:33:20.226Z,89.90
2018-12-31T02:35:49.720Z,79.63
2018-12-31T02:38:19.384Z,78.57
2018-12-31T02:40:49.144Z,86.83
2018-12-31T02:43:18.638Z,70.63
2018-12-31T02:45:48.202Z,70.73
2018-12-31T02:48:17.689Z,64.83
2018-12-31T02:50:47.234Z,70.30
2018-12-31T02:53:16.820Z,81.50
2018-12-31T02:55:46.304Z,89.33
2018-12-31T02:58:15.791Z,83.60
2018-12-31T03:00:45.437Z,73.43
2018-12-31T03:03:15.353Z,76.50
2018-12-31T03:05:45.238Z,78.23
2018-12-31T03:08:14.747Z,80.70
2018-12-31T03:10:44.406Z,89.90
2018-12-31T03:13:14.122Z,89.47
2018-12-31T03:15:43.624Z,73.50
2018-12-31T03:18:13.440Z,105.37
2018-12-31T03:20:43.072Z,112.40
2018-12-31T03:23:12.584Z,80.73
2018-12-31T03:25:42.085Z,84.87
2018-12-31T03:28:11.972Z,77.10
2018-12-31T03:30:42.267Z,97.40
2018-12-31T03:33:11.849Z,93.33
2018-12-31T03:35:41.366Z,95.67
2018-12-31T03:38:10.877Z,99.67
2018-12-31T03:40:40.810Z,99.90
2018-12-31T03:43:10.732Z,102.87
2018-12-31T03:45:40.393Z,105.00
2018-12-31T03:48:09.899Z,98.13
2018-12-31T03:50:39.740Z,112.57
2018-12-31T03:53:09.526Z,83.53
2018-12-31T03:55:39.016Z,98.90
2018-12-31T03:58:08.537Z,92.17
2018-12-31T04:00:38.100Z,102.57
2018-12-31T04:03:07.612Z,96.00
2018-12-31T04:05:37.149Z,98.57
2018-12-31T04:08:06.859Z,111.60
2018-12-31T04:10:36.496Z,108.77
2018-12-31T04:13:06.221Z,91.43
2018-12-31T04:15:35.736Z,106.30
2018-12-31T04:18:05.422Z,111.50
2018-12-31T04:20:35.222Z,109.87
2018-12-31T04:23:04.833Z,86.67
2018-12-31T04:25:34.342Z,94.40
2018-12-31T04:28:05.067Z,99.23
2018-12-31T04:30:42.408Z,95.87
2018-12-31T04:33:12.835Z,83.70
2018-12-31T04:35:42.796Z,100.37
2018-12-31T04:38:14.267Z,96.50
2018-12-31T04:40:53.475Z,95.90
2018-12-31T04:43:29.793Z,103.23
2018-12-31T04:46:16.814Z,91.80
2018-12-31T04:48:54.137Z,83.73
2018-12-31T04:51:56.007Z,95.73
2018-12-31T04:54:33.682Z,99.67
2018-12-31T04:57:14.966Z,78.60
2018-12-31T04:59:57.036Z,83.47
2018-12-31T05:02:35.242Z,95.17
2018-12-31T05:05:15.877Z,77.67
2018-12-31T05:07:58.845Z,86.80
2018-12-31T05:10:34.575Z,78.10
2018-12-31T05:13:11.981Z,76.60
2018-12-31T05:15:55.602Z,75.67
2018-12-31T05:18:42.135Z,83.90
2018-12-31T05:21:33.528Z,84.13
2018-12-31T05:24:38.795Z,66.40
2018-12-31T05:27:08.591Z,63.63
2018-12-31T05:29:38.125Z,73.37
2018-12-31T05:32:07.631Z,67.37
2018-12-31T05:34:37.131Z,72.40
2018-12-31T05:37:06.593Z,71.13
2018-12-31T05:39:36.615Z,75.47
2018-12-31T05:42:06.119Z,65.23
2018-12-31T05:44:35.747Z,57.83
2018-12-31T05:47:05.649Z,62.37
2018-12-31T05:49:35.821Z,60.67
2018-12-31T05:52:05.371Z,59.23
2018-12-31T05:54:34.993Z,73.73
2018-12-31T05:57:05.080Z,69.80
2018-12-31T05:59:35.005Z,61.67
2018-12-31T06:02:04.618Z,62.43
2018-12-31T06:04:34.740Z,60.20
2018-12-31T06:07:04.572Z,63.53
2018-12-31T06:09:34.192Z,53.67
2018-12-31T06:12:04.376Z,67.10
2018-12-31T06:14:37.945Z,54.60
2018-12-31T06:17:08.363Z,49.17
2018-12-31T06:19:38.252Z,61.63
2018-12-31T06:22:08.211Z,56.17
2018-12-31T06:24:38.362Z,48.63
2018-12-31T06:27:07.986Z,51.37
2018-12-31T06:29:39.793Z,50.90
2018-12-31T06:32:09.434Z,48.20
2018-12-31T06:34:39.410Z,46.13
2018-12-31T06:37:09.875Z,54.23
2018-12-31T06:39:39.452Z,51.70
2018-12-31T06:42:09.040Z,54.23
2018-12-31T06:44:39.180Z,57.10
2018-12-31T06:47:09.121Z,51.20
2018-12-31T06:49:39.398Z,51.93
2018-12-31T06:52:09.259Z,49.73
2018-12-31T06:54:39.233Z,44.70
2018-12-31T06:57:08.772Z,44.13
2018-12-31T06:59:38.392Z,43.47
2018-12-31T07:02:08.029Z,49.23
2018-12-31T07:04:38.114Z,47.37
2018-12-31T07:07:08.332Z,47.63
2018-12-31T07:09:38.160Z,54.07
2018-12-31T07:12:07.792Z,50.47
2018-12-31T07:14:37.729Z,46.17
2018-12-31T07:17:07.212Z,47.93
2018-12-31T07:19:37.084Z,44.50
2018-12-31T07:22:07.354Z,47.17
2018-12-31T07:24:36.964Z,50.53
2018-12-31T07:27:06.623Z,47.17
2018-12-31T07:29:36.162Z,49.47
2018-12-31T07:32:05.725Z,46.27
2018-12-31T07:34:35.485Z,45.83
2018-12-31T07:37:06.232Z,44.30
2018-12-31T07:39:36.264Z,48.80
2018-12-31T07:42:05.828Z,43.40
2018-12-31T07:44:35.774Z,54.47
2018-12-31T07:47:05.326Z,44.47
2018-12-31T07:49:35.540Z,46.70
2018-12-31T07:52:05.112Z,41.13
2018-12-31T07:54:34.674Z,50.37
2018-12-31T07:57:04.332Z,46.57
2018-12-31T07:59:34.277Z,42.87
2018-12-31T08:02:03.797Z,45.47
2018-12-31T08:04:33.356Z,40.37
2018-12-31T08:07:03.167Z,43.67
2018-12-31T08:09:32.680Z,44.03
2018-12-31T08:12:02.768Z,40.60
2018-12-31T08:14:32.852Z,34.47
2018-12-31T08:17:02.396Z,49.83
2018-12-31T08:19:32.257Z,45.67
2018-12-31T08:22:01.792Z,43.17
2018-12-31T08:24:31.544Z,44.07
2018-12-31T08:27:01.035Z,40.53
2018-12-31T08:29:30.542Z,41.70
2018-12-31T08:32:01.276Z,46.20
2018-12-31T08:34:31.212Z,40.43
2018-12-31T08:37:00.780Z,41.43
2018-12-31T08:39:30.607Z,41.27
2018-12-31T08:42:00.288Z,39.83
2018-12-31T08:44:29.773Z,32.73
2018-12-31T08:46:59.279Z,38.33
2018-12-31T08:49:29.143Z,32.10
2018-12-31T08:51:58.960Z,34.23
2018-12-31T08:54:28.644Z,36.97
2018-12-31T08:56:58.169Z,45.30
2018-12-31T08:59:28.636Z,36.10
2018-12-31T09:01:58.115Z,48.80
2018-12-31T09:04:27.614Z,36.43
2018-12-31T09:06:57.702Z,36.30
2018-12-31T09:09:27.300Z,45.10
2018-12-31T09:11:56.955Z,34.00
2018-12-31T09:14:26.502Z,37.63
2018-12-31T09:16:56.537Z,47.60
2018-12-31T09:19:26.072Z,39.57
2018-12-31T09:21:55.849Z,44.27
2018-12-31T09:24:26.108Z,42.70
2018-12-31T09:26:55.781Z,38.10
2018-12-31T09:29:25.806Z,48.37
2018-12-31T09:31:56.455Z,36.30
2018-12-31T09:34:25.907Z,41.17
2018-12-31T09:36:55.853Z,47.60
2018-12-31T09:39:25.537Z,39.67
2018-12-31T09:41:55.007Z,41.13
2018-12-31T09:44:24.545Z,39.17
2018-12-31T09:46:54.053Z,34.70
2018-12-31T09:49:23.756Z,36.03
2018-12-31T09:51:53.260Z,39.17
2018-12-31T09:54:22.820Z,31.03
2018-12-31T09:56:52.435Z,40.30
2018-12-31T09:59:22.026Z,33.37
2018-12-31T10:01:51.538Z,35.83
2018-12-31T10:04:21.628Z,34.67
2018-12-31T10:06:51.768Z,43.43
2018-12-31T10:09:21.268Z,35.03
2018-12-31T10:11:50.767Z,31.30
2018-12-31T10:14:20.348Z,31.20
2018-12-31T10:16:49.866Z,33.53
2018-12-31T10:19:19.377Z,37.00
2018-12-31T10:21:48.846Z,35.07
2018-12-31T10:24:19.223Z,32.30
2018-12-31T10:26:48.794Z,42.77
2018-12-31T10:29:18.375Z,31.53
2018-12-31T10:31:47.899Z,34.73
2018-12-31T10:34:17.393Z,38.70
2018-12-31T10:36:46.970Z,45.40
2018-12-31T10:39:16.517Z,50.93
2018-12-31T10:41:46.243Z,48.80
2018-12-31T10:44:16.006Z,35.00
2018-12-31T10:46:46.869Z,36.60
2018-12-31T10:49:16.445Z,35.70
2018-12-31T10:51:46.854Z,35.83
2018-12-31T10:54:16.388Z,38.77
2018-12-31T10:56:47.079Z,38.47
2018-12-31T10:59:17.128Z,43.13
2018-12-31T11:01:46.796Z,38.70
2018-12-31T11:04:16.893Z,45.80
2018-12-31T11:06:46.885Z,40.50
2018-12-31T11:09:17.086Z,57.17
2018-12-31T11:11:46.989Z,39.23
2018-12-31T11:14:16.514Z,50.57
2018-12-31T11:16:46.181Z,41.23
2018-12-31T11:19:15.804Z,37.13
2018-12-31T11:21:45.377Z,41.90
2018-12-31T11:24:14.943Z,39.47
2018-12-31T11:26:44.860Z,38.63
2018-12-31T11:29:15.188Z,37.00
2018-12-31T11:31:44.743Z,32.03
2018-12-31T11:34:14.608Z,38.47
2018-12-31T11:36:44.572Z,32.70
2018-12-31T11:39:14.153Z,41.57
2018-12-31T11:41:43.673Z,36.03
2018-12-31T11:44:13.365Z,32.50
2018-12-31T11:46:43.592Z,36.33
2018-12-31T11:49:13.228Z,31.53
2018-12-31T11:51:43.327Z,40.27
2018-12-31T11:54:12.926Z,36.30
2018-12-31T11:56:42.475Z,40.73
2018-12-31T11:59:11.981Z,43.30
2018-12-31T12:01:42.004Z,39.30
2018-12-31T12:04:11.914Z,44.37
2018-12-31T12:06:41.451Z,31.37
2018-12-31T12:09:11.601Z,38.07
2018-12-31T12:11:41.137Z,35.40
2018-12-31T12:14:10.649Z,33.40
2018-12-31T12:16:40.238Z,37.30
2018-12-31T12:19:10.061Z,32.40
2018-12-31T12:21:39.586Z,42.07
2018-12-31T12:24:09.596Z,40.07
2018-12-31T12:26:39.929Z,36.83
2018-12-31T12:29:09.840Z,34.27
2018-12-31T12:31:39.560Z,38.30
2018-12-31T12:34:09.108Z,32.60
2018-12-31T12:36:38.608Z,30.83
2018-12-31T12:39:09.471Z,37.33
2018-12-31T12:41:39.250Z,35.97
2018-12-31T12:44:08.878Z,32.13
2018-12-31T12:46:40.198Z,28.53
2018-12-31T12:49:09.696Z,31.90
2018-12-31T12:51:39.581Z,29.87
2018-12-31T12:54:09.874Z,33.80
2018-12-31T12:56:39.937Z,38.07
2018-12-31T12:59:09.422Z,33.53
2018-12-31T13:01:38.981Z,56.47
2018-12-31T13:04:08.478Z,43.97
2018-12-31T13:06:37.998Z,28.60
2018-12-31T13:09:09.308Z,30.43
2018-12-31T13:11:39.125Z,25.53
2018-12-31T13:14:09.056Z,25.57
2018-12-31T13:16:39.128Z,45.77
2018-12-31T13:19:08.960Z,49.43
2018-12-31T13:21:38.489Z,33.23
2018-12-31T13:24:08.016Z,39.07
2018-12-31T13:26:43.486Z,24.60
2018-12-31T13:29:09.616Z,25.43
2018-12-31T13:31:39.952Z,32.50
2018-12-31T13:34:09.976Z,24.73
2018-12-31T13:36:39.497Z,28.87
2018-12-31T13:39:09.035Z,28.97
2018-12-31T13:41:39.001Z,28.10
2018-12-31T13:44:08.780Z,22.33
2018-12-31T13:46:38.289Z,28.93
2018-12-31T13:49:07.839Z,28.70
2018-12-31T13:51:37.742Z,31.47
2018-12-31T13:54:07.737Z,31.40
2018-12-31T13:56:37.361Z,41.40
2018-12-31T13:59:07.271Z,40.67
2018-12-31T14:01:36.793Z,42.40
2018-12-31T14:04:06.324Z,36.47
2018-12-31T14:06:35.822Z,43.13
2018-12-31T14:09:07.351Z,44.10
2018-12-31T14:11:37.612Z,41.43
2018-12-31T14:14:07.210Z,29.73
2018-12-31T14:16:36.784Z,33.20
2018-12-31T14:19:06.298Z,37.17
2018-12-31T14:21:36.180Z,38.43
2018-12-31T14:24:05.686Z,32.47
2018-12-31T14:26:35.601Z,38.73
2018-12-31T14:29:05.169Z,36.50
2018-12-31T14:31:34.751Z,39.43
2018-12-31T14:34:04.747Z,32.67
2018-12-31T14:36:34.269Z,35.67
2018-12-31T14:39:04.920Z,33.57
2018-12-31T14:41:34.469Z,36.00
2018-12-31T14:44:04.007Z,29.70
2018-12-31T14:46:34.261Z,39.77
2018-12-31T14:49:03.732Z,40.10
2018-12-31T14:51:33.873Z,30.90
2018-12-31T14:54:03.709Z,37.87
2018-12-31T14:56:33.575Z,28.30
2018-12-31T14:59:03.125Z,40.00
2018-12-31T15:01:33.402Z,33.53
2018-12-31T15:04:03.341Z,38.67
2018-12-31T15:06:32.903Z,42.47
2018-12-31T15:09:02.695Z,38.73
2018-12-31T15:11:32.276Z,38.03
2018-12-31T15:14:02.598Z,34.07
2018-12-31T15:16:32.213Z,34.17
2018-12-31T15:19:01.787Z,35.07
2018-12-31T15:21:31.459Z,37.13
2018-12-31T15:24:00.956Z,32.40
2018-12-31T15:26:30.513Z,35.37
2018-12-31T15:29:00.015Z,39.70
2018-12-31T15:31:29.693Z,37.57
2018-12-31T15:33:59.596Z,33.67
2018-12-31T15:36:29.411Z,37.90
2018-12-31T15:38:59.350Z,31.83
2018-12-31T15:41:28.937Z,34.60
2018-12-31T15:44:01.914Z,37.93
2018-12-31T15:46:31.419Z,39.90
2018-12-31T15:49:01.371Z,37.07
2018-12-31T15:51:31.247Z,30.73
2018-12-31T15:54:00.811Z,31.43
2018-12-31T15:56:30.336Z,35.03
2018-12-31T15:58:59.872Z,31.30
2018-12-31T16:01:29.826Z,39.27
2018-12-31T16:03:59.411Z,38.90
2018-12-31T16:06:28.937Z,37.77
2018-12-31T16:08:58.461Z,41.40
2018-12-31T16:11:28.137Z,38.40
2018-12-31T16:13:57.690Z,36.53
2018-12-31T16:16:27.259Z,34.27
2018-12-31T16:18:58.038Z,27.00
2018-12-31T16:21:27.781Z,21.43
2018-12-31T16:23:57.552Z,19.47
2018-12-31T16:26:27.100Z,21.47
2018-12-31T16:28:57.124Z,27.20
2018-12-31T16:31:26.703Z,25.17
2018-12-31T16:33:56.185Z,24.47
2018-12-31T16:36:26.658Z,25.80
2018-12-31T16:38:56.670Z,28.63
2018-12-31T16:41:26.219Z,40.40
2018-12-31T16:43:56.746Z,31.07
2018-12-31T16:46:26.734Z,32.17
2018-12-31T16:48:56.626Z,27.17
2018-12-31T16:51:28.351Z,31.07
2018-12-31T16:54:00.860Z,27.13
2018-12-31T16:56:30.693Z,24.90
2018-12-31T16:59:00.564Z,24.97
2018-12-31T17:01:30.236Z,28.03
2018-12-31T17:03:59.776Z,26.00
2018-12-31T17:06:29.351Z,32.33
2018-12-31T17:08:59.068Z,34.10
2018-12-31T17:11:29.617Z,28.70
2018-12-31T17:13:59.342Z,29.57
2018-12-31T17:16:29.018Z,27.63
2018-12-31T17:18:59.458Z,33.97
2018-12-31T17:21:28.967Z,26.60
2018-12-31T17:23:59.539Z,25.43
2018-12-31T17:26:29.028Z,26.70
2018-12-31T17:28:59.251Z,29.30
2018-12-31T17:31:29.216Z,31.77
2018-12-31T17:33:59.068Z,39.33
2018-12-31T17:36:28.916Z,40.57
2018-12-31T17:38:58.492Z,41.43
2018-12-31T17:41:28.204Z,40.90
2018-12-31T17:43:58.115Z,43.30
2018-12-31T17:46:27.969Z,47.03
2018-12-31T17:48:57.589Z,43.17
2018-12-31T17:51:27.769Z,45.03
2018-12-31T17:53:57.258Z,52.50
2018-12-31T17:56:27.550Z,58.13
2018-12-31T17:58:57.057Z,53.33
2018-12-31T18:01:26.709Z,50.43
2018-12-31T18:03:56.754Z,53.93
2018-12-31T18:06:26.300Z,47.10
2018-12-31T18:08:56.283Z,55.43
2018-12-31T18:11:26.172Z,53.20
2018-12-31T18:13:55.743Z,61.30
2018-12-31T18:16:25.377Z,62.10
2018-12-31T18:18:54.925Z,65.73
2018-12-31T18:21:24.404Z,51.07
2018-12-31T18:23:54.289Z,61.80
2018-12-31T18:26:24.141Z,59.23
2018-12-31T18:28:53.690Z,54.63
2018-12-31T18:31:23.624Z,66.73
2018-12-31T18:33:53.164Z,56.57
2018-12-31T18:36:23.581Z,60.23
2018-12-31T18:38:56.285Z,52.43
2018-12-31T18:41:26.033Z,58.30
2018-12-31T18:43:55.605Z,61.33
2018-12-31T18:46:25.120Z,52.63
2018-12-31T18:48:54.683Z,47.33
2018-12-31T18:51:24.268Z,48.47
2018-12-31T18:53:53.902Z,49.20
2018-12-31T18:56:23.491Z,48.27
2018-12-31T18:58:53.349Z,44.20
2018-12-31T19:01:22.998Z,38.40
2018-12-31T19:03:52.517Z,37.10
2018-12-31T19:06:22.579Z,38.50
2018-12-31T19:08:52.671Z,34.50
2018-12-31T19:11:25.760Z,34.40
2018-12-31T19:13:55.908Z,36.40
2018-12-31T19:16:25.767Z,32.77
2018-12-31T19:18:56.724Z,38.33
2018-12-31T19:21:26.202Z,28.60
2018-12-31T19:23:55.757Z,27.10
2018-12-31T19:26:25.282Z,28.67
2018-12-31T19:28:54.861Z,32.60
2018-12-31T19:31:25.275Z,33.60
2018-12-31T19:33:54.871Z,31.20
2018-12-31T19:36:25.039Z,29.70
2018-12-31T19:38:54.993Z,30.77
2018-12-31T19:41:24.820Z,37.40
2018-12-31T19:43:54.397Z,34.10
2018-12-31T19:46:23.940Z,33.57
2018-12-31T19:48:53.622Z,30.70
2018-12-31T19:51:23.757Z,33.50
2018-12-31T19:53:53.321Z,39.93
2018-12-31T19:56:22.918Z,37.90
2018-12-31T19:58:52.446Z,34.70
2018-12-31T20:01:22.190Z,35.57
2018-12-31T20:03:51.701Z,34.73
2018-12-31T20:06:21.417Z,38.17
2018-12-31T20:08:50.957Z,40.07
2018-12-31T20:11:20.559Z,36.53
2018-12-31T20:13:50.442Z,42.07
2018-12-31T20:16:20.064Z,34.97
2018-12-31T20:18:49.717Z,35.80
2018-12-31T20:21:22.002Z,39.73
2018-12-31T20:23:51.723Z,43.83
2018-12-31T20:26:21.309Z,38.70
2018-12-31T20:28:54.284Z,57.70
2018-12-31T20:31:27.593Z,44.60
2018-12-31T20:33:56.977Z,55.23
2018-12-31T20:36:29.514Z,39.17
2018-12-31T20:38:59.413Z,35.23
2018-12-31T20:41:29.025Z,38.10
2018-12-31T20:44:00.439Z,39.13
2018-12-31T20:46:30.153Z,39.30
2018-12-31T20:49:00.428Z,43.07
2018-12-31T20:51:30.129Z,45.17
2018-12-31T20:54:00.857Z,38.70
2018-12-31T20:56:30.429Z,44.00
2018-12-31T20:59:00.250Z,41.87
2018-12-31T21:01:30.151Z,43.30
2018-12-31T21:03:59.721Z,43.90
2018-12-31T21:06:29.811Z,45.80
2018-12-31T21:09:00.056Z,41.07
2018-12-31T21:11:39.128Z,45.70
2018-12-31T21:14:14.138Z,49.07
2018-12-31T21:16:44.215Z,45.50
2018-12-31T21:19:15.941Z,43.67
2018-12-31T21:21:46.082Z,50.70
2018-12-31T21:24:15.809Z,51.07
2018-12-31T21:26:45.423Z,48.80
2018-12-31T21:29:18.589Z,51.73
2018-12-31T21:31:51.201Z,46.17
2018-12-31T21:34:20.915Z,45.57
2018-12-31T21:36:50.468Z,42.60
2018-12-31T21:39:20.257Z,54.80
2018-12-31T21:41:50.220Z,53.80
2018-12-31T21:44:19.802Z,50.20
2018-12-31T21:46:50.825Z,53.43
2018-12-31T21:49:24.629Z,48.37
2018-12-31T21:51:54.261Z,49.50
2018-12-31T21:54:23.861Z,54.33
2018-12-31T21:56:53.728Z,52.07
2018-12-31T21:59:24.085Z,53.20
2018-12-31T22:01:53.598Z,58.00
2018-12-31T22:04:23.096Z,54.97
2018-12-31T22:06:52.649Z,58.00
2018-12-31T22:09:22.230Z,80.77
2018-12-31T22:11:51.761Z,57.10
2018-12-31T22:14:21.294Z,49.90
2018-12-31T22:16:50.860Z,46.07
2018-12-31T22:19:26.724Z,42.83
2018-12-31T22:21:56.984Z,48.07
2018-12-31T22:24:26.623Z,44.87
2018-12-31T22:26:56.874Z,47.60
2018-12-31T22:29:26.791Z,52.97
2018-12-31T22:31:56.728Z,212.23
2018-12-31T22:34:35.764Z,85.77
2018-12-31T22:37:09.248Z,68.13
2018-12-31T22:39:45.886Z,104.77
2018-12-31T22:42:15.638Z,85.80
2018-12-31T22:44:45.760Z,146.87
2018-12-31T22:47:16.783Z,109.57
2018-12-31T22:49:46.273Z,153.60
2018-12-31T22:52:15.964Z,131.57
2018-12-31T22:54:46.143Z,103.00
2018-12-31T22:57:17.464Z,57.30
2018-12-31T22:59:49.164Z,321.70
2018-12-31T23:02:18.688Z,141.70
2018-12-31T23:04:48.335Z,965.73
2018-12-31T23:07:17.986Z,539.73
2018-12-31T23:09:47.558Z,478.87
2018-12-31T23:12:17.907Z,560.47
2018-12-31T23:14:47.817Z,625.97
2018-12-31T23:17:18.881Z,473.93
2018-12-31T23:19:48.505Z,572.20
2018-12-31T23:22:20.556Z,178.43
2018-12-31T23:24:50.056Z,240.57
2018-12-31T23:27:19.593Z,180.77
2018-12-31T23:29:49.533Z,333.00
2018-12-31T23:32:24.993Z,127.10
2018-12-31T23:34:54.679Z,171.83
2018-12-31T23:38:03.995Z,74.37
2018-12-31T23:40:33.548Z,61.53
2018-12-31T23:43:06.582Z,57.70
2018-12-31T23:45:34.493Z,53.10
2018-12-31T23:48:04.423Z,52.60
2018-12-31T23:50:33.933Z,75.33
2018-12-31T23:53:03.495Z,136.83
2018-12-31T23:55:33.612Z,52.80
2018-12-31T23:58:04.228Z,69.00
